Time;durP1;ratioP1;P1;durP2;ratioP2;P2;SDS_P1;SDS_P2;PMS_P1;PMS_P2;Temp;Humidity;BMP_temperature;BMP_pressure;BME280_temperature;BME280_humidity;BME280_pressure;Samples;Min_cycle;Max_cycle;Signal;HPM_P1;HPM_P2
2022/06/28 00:01:25;;;;;;;6.55;4.20;;;18.40;99.90;;;;;;4837642;29;20054;-66
2022/06/28 00:03:52;;;;;;;5.28;4.00;;;18.40;99.90;;;;;;4850590;29;20474;-66
2022/06/28 00:06:20;;;;;;;6.93;4.28;;;18.50;99.90;;;;;;4831251;29;20409;-66
2022/06/28 00:08:47;;;;;;;6.35;4.15;;;18.40;99.90;;;;;;4847558;29;20065;-66
2022/06/28 00:11:15;;;;;;;7.25;4.45;;;18.50;99.90;;;;;;4841284;29;20061;-65
2022/06/28 00:13:42;;;;;;;5.03;4.07;;;18.50;99.90;;;;;;4835266;29;20085;-67
2022/06/28 00:16:14;;;;;;;7.22;4.28;;;18.50;99.90;;;;;;4843342;29;20141;-65
2022/06/28 00:18:43;;;;;;;5.50;3.95;;;18.50;99.90;;;;;;4841244;29;20050;-66
2022/06/28 00:21:11;;;;;;;5.22;3.72;;;18.50;99.90;;;;;;4840671;29;20048;-64
2022/06/28 00:23:40;;;;;;;7.80;3.90;;;18.40;99.90;;;;;;4841129;29;20077;-65
2022/06/28 00:26:08;;;;;;;6.03;3.17;;;18.40;99.90;;;;;;4841372;29;20054;-66
2022/06/28 00:28:36;;;;;;;6.38;3.67;;;18.40;99.90;;;;;;4840064;29;20045;-66
2022/06/28 00:31:04;;;;;;;4.80;4.00;;;18.40;99.90;;;;;;4840835;29;20085;-66
2022/06/28 00:33:31;;;;;;;5.35;3.50;;;18.30;99.90;;;;;;4826235;29;20080;-66
2022/06/28 00:35:59;;;;;;;8.32;3.92;;;18.30;99.90;;;;;;4849893;29;20110;-66
2022/06/28 00:38:26;;;;;;;7.80;4.20;;;18.20;99.90;;;;;;4839399;29;20187;-67
2022/06/28 00:40:54;;;;;;;8.10;3.80;;;18.20;99.90;;;;;;4857319;29;20461;-66
2022/06/28 00:43:22;;;;;;;5.45;3.60;;;18.10;99.90;;;;;;4873507;29;20064;-67
2022/06/28 00:45:51;;;;;;;5.25;3.55;;;18.10;99.90;;;;;;4844755;29;20097;-65
2022/06/28 00:48:22;;;;;;;7.28;3.83;;;18.00;99.90;;;;;;4859162;29;20098;-66
2022/06/28 00:50:50;;;;;;;5.05;3.47;;;18.00;99.90;;;;;;4852960;29;20075;-66
2022/06/28 00:53:18;;;;;;;7.45;3.65;;;18.00;99.90;;;;;;4851046;29;20516;-65
2022/06/28 00:55:46;;;;;;;6.65;4.40;;;17.90;99.90;;;;;;4859758;29;20576;-66
2022/06/28 00:58:16;;;;;;;4.93;3.45;;;17.80;99.90;;;;;;4857576;29;20476;-66
2022/06/28 01:00:49;;;;;;;4.72;3.65;;;17.80;99.90;;;;;;4857295;29;20072;-65
2022/06/28 01:03:22;;;;;;;6.30;4.43;;;17.80;99.90;;;;;;4858641;29;20128;-66
2022/06/28 01:05:52;;;;;;;7.05;4.78;;;17.70;99.90;;;;;;4855511;29;20057;-66
2022/06/28 01:08:24;;;;;;;6.93;4.20;;;17.70;99.90;;;;;;4832909;29;20053;-65
2022/06/28 01:10:51;;;;;;;5.00;3.88;;;17.60;99.90;;;;;;4828882;29;20169;-66
2022/06/28 01:13:21;;;;;;;5.38;3.50;;;17.60;99.90;;;;;;4865155;29;20470;-65
2022/06/28 01:15:50;;;;;;;7.88;4.57;;;17.70;99.90;;;;;;4850623;29;20060;-66
2022/06/28 01:18:18;;;;;;;5.80;3.95;;;17.70;99.90;;;;;;4849964;29;20073;-66
2022/06/28 01:20:48;;;;;;;6.82;4.22;;;17.60;99.90;;;;;;4872716;29;20101;-65
2022/06/28 01:23:17;;;;;;;5.85;4.47;;;17.60;99.90;;;;;;4845590;29;20126;-66
2022/06/28 01:25:47;;;;;;;8.90;3.88;;;17.60;99.90;;;;;;4872810;29;20138;-66
2022/06/28 01:28:19;;;;;;;5.72;4.63;;;17.60;99.90;;;;;;4843767;29;20667;-66
2022/06/28 01:30:51;;;;;;;8.30;4.25;;;17.60;99.90;;;;;;4864657;29;20058;-66
2022/06/28 01:33:23;;;;;;;5.95;4.22;;;17.60;99.90;;;;;;4839616;29;20614;-66
2022/06/28 01:35:53;;;;;;;5.57;4.53;;;17.60;99.90;;;;;;4849408;29;20052;-66
2022/06/28 01:38:23;;;;;;;5.68;4.15;;;17.70;99.90;;;;;;4838270;29;20537;-65
2022/06/28 01:40:51;;;;;;;6.28;4.10;;;17.70;99.90;;;;;;4839669;29;20516;-66
2022/06/28 01:43:19;;;;;;;5.85;4.22;;;17.70;99.90;;;;;;4852141;29;20076;-66
2022/06/28 01:45:51;;;;;;;7.00;4.40;;;17.70;99.90;;;;;;4858335;29;20053;-67
2022/06/28 01:48:19;;;;;;;5.82;4.32;;;17.70;99.90;;;;;;4856673;29;20045;-68
2022/06/28 01:51:03;;;;;;;6.47;4.25;;;17.60;99.90;;;;;;4856507;29;20077;-66
2022/06/28 01:53:31;;;;;;;7.35;5.30;;;17.70;99.90;;;;;;4841526;29;20417;-66
2022/06/28 01:56:04;;;;;;;6.40;4.35;;;17.60;99.90;;;;;;4841813;29;20128;-65
2022/06/28 01:58:55;;;;;;;6.45;4.80;;;17.50;99.90;;;;;;4846292;29;20513;-66
2022/06/28 02:01:28;;;;;;;7.28;4.75;;;17.50;99.90;;;;;;4844279;29;20611;-65
2022/06/28 02:03:56;;;;;;;6.13;4.78;;;17.40;99.90;;;;;;4834365;29;20061;-65
2022/06/28 02:06:34;;;;;;;9.98;5.20;;;17.30;99.90;;;;;;4858231;29;20113;-66
2022/06/28 02:09:06;;;;;;;6.57;4.38;;;17.30;99.90;;;;;;4852417;29;20061;-65
2022/06/28 02:11:42;;;;;;;8.93;5.15;;;17.30;99.90;;;;;;4857048;29;20057;-65
2022/06/28 02:14:10;;;;;;;8.02;5.18;;;17.20;99.90;;;;;;4871619;29;20419;-64
2022/06/28 02:16:38;;;;;;;8.27;5.30;;;17.20;99.90;;;;;;4852966;29;20402;-65
2022/06/28 02:19:06;;;;;;;7.07;5.55;;;17.20;99.90;;;;;;4869586;29;20097;-65
2022/06/28 02:21:41;;;;;;;7.40;5.85;;;17.20;99.90;;;;;;4869780;29;20485;-66
2022/06/28 02:24:10;;;;;;;9.35;5.50;;;17.20;99.90;;;;;;4853951;29;20505;-66
2022/06/28 02:26:37;;;;;;;7.43;4.82;;;17.10;99.90;;;;;;4855787;29;20567;-66
2022/06/28 02:29:06;;;;;;;7.93;6.18;;;17.10;99.90;;;;;;4856577;29;20124;-66
2022/06/28 02:31:36;;;;;;;9.77;5.63;;;17.10;99.90;;;;;;4844200;29;20054;-66
2022/06/28 02:34:05;;;;;;;8.95;5.68;;;17.10;99.90;;;;;;4850055;29;20053;-66
2022/06/28 02:42:00;;;;;;;8.07;5.70;;;17.00;99.90;;;;;;4845569;29;20526;-65
2022/06/28 02:44:27;;;;;;;9.18;5.25;;;16.90;99.90;;;;;;4849123;29;20046;-67
2022/06/28 02:46:55;;;;;;;8.90;5.90;;;16.90;99.90;;;;;;4824422;29;20048;-65
2022/06/28 02:49:22;;;;;;;9.10;5.75;;;16.80;99.90;;;;;;4850748;29;20141;-65
2022/06/28 02:51:49;;;;;;;7.13;5.13;;;16.80;99.90;;;;;;4825046;29;20057;-66
2022/06/28 02:54:17;;;;;;;10.48;6.15;;;16.80;99.90;;;;;;4855967;29;20128;-66
2022/06/28 02:56:44;;;;;;;7.15;5.55;;;16.70;99.90;;;;;;4839111;29;20053;-66
2022/06/28 02:59:12;;;;;;;8.35;5.55;;;16.80;99.90;;;;;;4845598;29;20522;-66
2022/06/28 03:01:40;;;;;;;8.70;6.90;;;16.80;99.90;;;;;;4840108;29;20541;-66
2022/06/28 03:04:07;;;;;;;8.40;5.97;;;16.70;99.90;;;;;;4853937;29;20498;-66
2022/06/28 03:06:34;;;;;;;8.63;5.70;;;16.70;99.90;;;;;;4836859;29;20141;-65
2022/06/28 03:09:02;;;;;;;7.35;5.35;;;16.70;99.90;;;;;;4819654;29;20521;-66
2022/06/28 03:11:29;;;;;;;7.82;6.15;;;16.70;99.90;;;;;;4849487;29;20102;-65
2022/06/28 03:13:57;;;;;;;10.95;5.50;;;16.70;99.90;;;;;;4855870;29;20053;-64
2022/06/28 03:16:24;;;;;;;8.85;5.45;;;16.70;99.90;;;;;;4853434;29;20052;-64
2022/06/28 03:18:51;;;;;;;9.60;6.13;;;16.70;99.90;;;;;;4836724;29;20155;-64
2022/06/28 03:21:19;;;;;;;9.23;5.85;;;16.70;99.90;;;;;;4854805;29;20057;-65
2022/06/28 03:23:46;;;;;;;9.00;5.72;;;16.80;99.90;;;;;;4861977;29;20046;-65
2022/06/28 03:26:14;;;;;;;11.52;5.63;;;16.80;99.90;;;;;;4835769;29;20045;-65
2022/06/28 03:28:41;;;;;;;10.55;5.05;;;16.80;99.90;;;;;;4854017;29;20458;-66
2022/06/28 03:31:08;;;;;;;7.00;5.35;;;16.90;99.90;;;;;;4846399;29;20110;-65
2022/06/28 03:33:36;;;;;;;8.40;5.13;;;17.00;99.90;;;;;;4838717;29;20045;-65
2022/06/28 03:36:03;;;;;;;9.25;6.40;;;17.00;99.90;;;;;;4839502;29;20052;-66
2022/06/28 03:38:35;;;;;;;7.63;5.38;;;17.00;99.90;;;;;;4835046;29;20056;-66
2022/06/28 03:41:22;;;;;;;9.80;5.63;;;17.10;99.90;;;;;;4829237;29;20061;-66
2022/06/28 03:43:55;;;;;;;7.05;5.00;;;17.10;99.90;;;;;;4841785;29;20045;-67
2022/06/28 03:46:22;;;;;;;8.05;5.15;;;17.10;99.90;;;;;;4839267;29;20054;-66
2022/06/28 03:49:04;;;;;;;7.20;5.75;;;17.10;99.90;;;;;;4822417;29;20151;-66
2022/06/28 03:51:46;;;;;;;;;;;17.00;99.90;;;;;;4846905;29;20060;-66
2022/06/28 03:54:27;;;;;;;9.07;5.22;;;17.00;99.90;;;;;;4850879;29;20470;-68
2022/06/28 03:57:18;;;;;;;8.65;6.15;;;17.00;99.90;;;;;;4846141;29;20063;-66
2022/06/28 03:59:45;;;;;;;8.30;5.38;;;17.10;99.90;;;;;;4851632;29;20321;-66
2022/06/28 04:02:13;;;;;;;6.53;5.30;;;17.10;99.90;;;;;;4869669;29;20075;-66
2022/06/28 04:04:40;;;;;;;9.32;5.20;;;17.10;99.90;;;;;;4869260;29;20068;-66
2022/06/28 04:07:10;;;;;;;9.38;5.25;;;17.10;99.90;;;;;;4839458;29;20050;-66
2022/06/28 04:09:37;;;;;;;8.82;5.40;;;17.20;99.90;;;;;;4850320;29;20053;-66
2022/06/28 04:12:05;;;;;;;7.38;5.22;;;17.20;99.90;;;;;;4843892;29;20057;-66
2022/06/28 04:14:33;;;;;;;9.68;5.28;;;17.10;99.90;;;;;;4833098;29;20049;-66
2022/06/28 04:17:02;;;;;;;10.45;5.78;;;17.20;99.90;;;;;;4840059;29;20060;-66
2022/06/28 04:19:55;;;;;;;7.75;5.30;;;17.20;99.90;;;;;;4837256;29;20481;-66
2022/06/28 04:22:24;;;;;;;8.13;5.50;;;17.20;99.90;;;;;;4869041;29;20050;-67
2022/06/28 04:24:51;;;;;;;7.05;5.43;;;17.20;99.90;;;;;;4870012;29;20053;-66
2022/06/28 04:27:27;;;;;;;12.30;5.45;;;17.30;99.90;;;;;;4848569;29;20056;-66
2022/06/28 04:29:54;;;;;;;9.80;5.82;;;17.30;99.90;;;;;;4866077;29;20509;-66
2022/06/28 04:32:35;;;;;;;10.75;5.70;;;17.40;99.90;;;;;;4851088;29;20151;-66
2022/06/28 04:35:05;;;;;;;8.32;5.50;;;17.30;99.90;;;;;;4820847;29;20062;-66
2022/06/28 04:37:33;;;;;;;6.47;5.18;;;17.30;99.90;;;;;;4836848;29;20049;-67
2022/06/28 04:40:10;;;;;;;9.05;5.90;;;17.30;99.90;;;;;;4849627;29;20061;-67
2022/06/28 04:42:48;;;;;;;10.13;6.38;;;17.30;99.90;;;;;;4821950;29;20046;-67
2022/06/28 04:45:15;;;;;;;7.20;5.22;;;17.30;99.90;;;;;;4852145;29;20512;-67
2022/06/28 04:47:57;;;;;;;7.90;6.30;;;17.30;99.90;;;;;;4853910;29;20473;-67
2022/06/28 04:50:24;;;;;;;7.15;5.55;;;17.40;99.90;;;;;;4853325;29;20422;-66
2022/06/28 04:52:52;;;;;;;11.52;5.47;;;17.40;99.90;;;;;;4873270;29;20090;-66
2022/06/28 04:55:19;;;;;;;6.95;5.20;;;17.40;99.90;;;;;;4836738;29;20053;-65
2022/06/28 04:57:59;;;;;;;6.88;5.60;;;17.40;99.90;;;;;;4848233;29;20596;-65
2022/06/28 05:00:28;;;;;;;12.40;5.72;;;17.40;99.90;;;;;;4853876;29;20129;-66
2022/06/28 05:03:18;;;;;;;12.43;6.47;;;17.40;99.90;;;;;;4835308;29;20057;-66
2022/06/28 05:06:12;;;;;;;8.40;5.38;;;17.40;99.90;;;;;;4857646;29;20128;-66
2022/06/28 05:08:41;;;;;;;8.98;5.13;;;17.50;99.90;;;;;;4841510;29;20042;-66
2022/06/28 05:11:08;;;;;;;6.80;4.97;;;17.40;99.90;;;;;;4858709;29;20084;-66
2022/06/28 05:13:54;;;;;;;9.88;5.40;;;17.50;99.90;;;;;;4852225;29;20504;-67
2022/06/28 05:16:23;;;;;;;8.27;5.60;;;17.40;99.90;;;;;;4831736;29;20041;-65
2022/06/28 05:18:52;;;;;;;8.25;5.20;;;17.50;99.90;;;;;;4848992;29;20089;-66
2022/06/28 05:21:28;;;;;;;7.63;5.47;;;17.60;99.90;;;;;;4853782;29;20045;-66
2022/06/28 05:23:57;;;;;;;8.43;6.05;;;17.60;99.90;;;;;;4853253;29;20512;-66
2022/06/28 05:26:38;;;;;;;9.98;5.53;;;17.50;99.90;;;;;;4868429;29;20207;-66
2022/06/28 05:29:12;;;;;;;13.73;5.97;;;17.30;99.90;;;;;;4837170;29;20441;-66
2022/06/28 05:31:39;;;;;;;6.70;5.30;;;17.40;99.90;;;;;;4836796;29;20061;-66
2022/06/28 05:34:07;;;;;;;7.88;5.47;;;17.50;99.90;;;;;;4825500;29;20057;-66
2022/06/28 05:36:37;;;;;;;8.73;5.63;;;17.60;99.90;;;;;;4858268;29;20397;-66
2022/06/28 05:39:05;;;;;;;8.60;5.20;;;17.70;99.90;;;;;;4841427;29;20572;-67
2022/06/28 05:41:32;;;;;;;8.70;5.53;;;17.70;99.90;;;;;;4862084;29;20050;-66
2022/06/28 05:44:01;;;;;;;13.43;5.80;;;17.60;99.90;;;;;;4829792;29;20045;-66
2022/06/28 05:46:29;;;;;;;7.90;5.93;;;17.70;99.90;;;;;;4838106;29;20453;-66
2022/06/28 05:48:56;;;;;;;9.88;6.07;;;17.70;99.90;;;;;;4848907;29;20045;-66
2022/06/28 05:51:24;;;;;;;10.93;5.68;;;17.70;99.90;;;;;;4840867;29;20166;-66
2022/06/28 05:53:51;;;;;;;10.73;5.93;;;17.70;99.90;;;;;;4863551;29;20128;-66
2022/06/28 05:56:19;;;;;;;11.00;5.82;;;17.80;99.90;;;;;;4856957;29;20509;-66
2022/06/28 05:58:47;;;;;;;6.88;5.00;;;17.70;99.90;;;;;;4835649;29;20042;-66
2022/06/28 06:01:14;;;;;;;7.50;5.00;;;17.80;99.90;;;;;;4851995;29;20551;-66
2022/06/28 06:03:42;;;;;;;10.02;5.40;;;17.90;99.90;;;;;;4825467;29;20037;-66
2022/06/28 06:06:09;;;;;;;8.32;4.22;;;18.00;99.90;;;;;;4843308;29;20193;-66
2022/06/28 06:08:37;;;;;;;7.38;4.75;;;17.90;99.90;;;;;;4864511;29;20548;-66
2022/06/28 06:11:07;;;;;;;9.30;5.15;;;17.90;99.90;;;;;;4838744;29;20076;-68
2022/06/28 06:13:35;;;;;;;6.82;4.50;;;18.10;99.90;;;;;;4851544;29;20054;-67
2022/06/28 06:16:04;;;;;;;9.57;4.55;;;18.30;99.90;;;;;;4869390;29;20114;-68
2022/06/28 06:18:33;;;;;;;5.82;4.03;;;18.50;99.90;;;;;;4856739;29;20071;-67
2022/06/28 06:21:00;;;;;;;6.15;3.90;;;18.50;99.90;;;;;;4839828;29;20512;-67
2022/06/28 06:23:28;;;;;;;8.95;3.95;;;18.60;99.90;;;;;;4856749;29;20548;-66
2022/06/28 06:26:04;;;;;;;8.05;3.92;;;18.70;99.90;;;;;;4869731;29;20517;-67
2022/06/28 06:28:35;;;;;;;9.30;3.55;;;18.90;99.90;;;;;;4837543;29;20053;-67
2022/06/28 06:31:03;;;;;;;5.95;4.03;;;18.90;99.90;;;;;;4848153;29;20052;-68
2022/06/28 06:34:09;;;;;;;5.97;3.58;;;18.90;99.90;;;;;;4855446;29;20128;-67
2022/06/28 06:36:49;;;;;;;4.97;3.10;;;19.10;99.90;;;;;;4853129;29;20543;-67
2022/06/28 06:39:18;;;;;;;5.40;3.30;;;19.20;99.90;;;;;;4860207;29;20046;-67
2022/06/28 06:41:45;;;;;;;6.53;3.92;;;19.30;99.90;;;;;;4871162;29;20417;-67
2022/06/28 06:44:14;;;;;;;5.20;3.53;;;19.20;99.90;;;;;;4859306;29;20101;-67
2022/06/28 06:46:42;;;;;;;6.60;3.80;;;19.20;99.90;;;;;;4856372;29;20046;-67
2022/06/28 06:49:14;;;;;;;7.72;2.95;;;19.30;99.90;;;;;;4852498;29;20156;-67
2022/06/28 06:51:45;;;;;;;8.77;3.72;;;19.50;99.90;;;;;;4862537;29;20053;-68
2022/06/28 06:54:14;;;;;;;7.68;4.32;;;19.60;99.90;;;;;;4836564;29;20072;-67
2022/06/28 06:56:42;;;;;;;6.97;3.78;;;19.60;99.90;;;;;;4850119;29;20485;-67
2022/06/28 06:59:14;;;;;;;6.90;3.17;;;19.60;99.90;;;;;;4851428;29;20045;-67
2022/06/28 07:01:41;;;;;;;8.23;3.45;;;19.80;99.90;;;;;;4857405;29;20102;-68
2022/06/28 07:04:15;;;;;;;5.35;2.78;;;19.70;99.90;;;;;;4849719;29;20053;-67
2022/06/28 07:06:44;;;;;;;4.20;2.95;;;19.80;99.90;;;;;;4847425;29;20504;-67
2022/06/28 07:09:12;;;;;;;4.18;2.42;;;19.80;99.90;;;;;;4851603;29;20140;-69
2022/06/28 07:11:40;;;;;;;4.70;2.45;;;20.10;99.90;;;;;;4853013;29;20049;-70
2022/06/28 07:14:07;;;;;;;11.32;2.72;;;20.00;99.90;;;;;;4861026;29;20547;-68
2022/06/28 07:16:34;;;;;;;5.10;2.60;;;20.10;99.90;;;;;;4863249;29;20053;-68
2022/06/28 07:19:03;;;;;;;4.80;2.50;;;20.10;99.90;;;;;;4858332;29;20048;-69
2022/06/28 07:21:30;;;;;;;4.18;2.20;;;20.10;99.90;;;;;;4849591;29;20094;-68
2022/06/28 07:23:58;;;;;;;3.95;2.45;;;20.00;99.90;;;;;;4855188;29;20088;-68
2022/06/28 07:26:25;;;;;;;4.78;1.98;;;20.20;99.90;;;;;;4849685;29;20584;-68
2022/06/28 07:28:52;;;;;;;3.35;2.38;;;20.30;99.90;;;;;;4840189;29;20041;-68
2022/06/28 07:31:20;;;;;;;15.25;2.60;;;20.40;99.90;;;;;;4859291;29;20142;-68
2022/06/28 07:33:47;;;;;;;5.90;2.45;;;20.30;99.90;;;;;;4843897;29;20125;-67
2022/06/28 07:36:19;;;;;;;6.13;2.33;;;20.30;99.90;;;;;;4855063;29;20054;-68
2022/06/28 07:38:48;;;;;;;4.35;2.22;;;20.40;99.90;;;;;;4836379;29;20060;-68
2022/06/28 07:41:23;;;;;;;3.53;2.22;;;20.50;99.90;;;;;;4841259;29;20556;-67
2022/06/28 07:44:10;;;;;;;4.60;2.30;;;20.50;99.90;;;;;;4858196;29;20083;-67
2022/06/28 07:46:39;;;;;;;4.88;2.10;;;20.60;99.90;;;;;;4824424;29;20046;-67
2022/06/28 07:49:06;;;;;;;2.90;1.80;;;20.80;99.90;;;;;;4857960;29;20479;-68
2022/06/28 07:54:21;;;;;;;3.80;1.95;;;21.00;99.90;;;;;;4862366;29;20048;-67
2022/06/28 07:57:03;;;;;;;3.20;1.75;;;21.20;99.90;;;;;;4831111;29;20538;-67
2022/06/28 07:59:33;;;;;;;3.63;1.88;;;21.30;99.90;;;;;;4830872;29;20114;-68
2022/06/28 08:02:01;;;;;;;3.33;1.50;;;21.50;99.90;;;;;;4854902;29;20465;-67
2022/06/28 08:04:32;;;;;;;5.32;2.50;;;21.70;99.90;;;;;;4843419;29;20049;-66
2022/06/28 08:07:01;;;;;;;4.40;1.95;;;21.80;99.90;;;;;;4832634;29;20427;-67
2022/06/28 08:09:30;;;;;;;4.80;2.00;;;22.10;99.90;;;;;;4842721;29;20053;-67
2022/06/28 08:11:58;;;;;;;3.13;1.67;;;22.30;99.90;;;;;;4855721;29;20505;-67
2022/06/28 08:14:27;;;;;;;5.43;2.00;;;22.20;99.90;;;;;;4851896;29;20063;-68
2022/06/28 08:16:54;;;;;;;4.68;1.40;;;22.50;99.90;;;;;;4839136;29;20082;-67
2022/06/28 08:19:22;;;;;;;2.75;1.38;;;22.60;99.90;;;;;;4855673;29;20075;-67
2022/06/28 08:21:49;;;;;;;4.32;1.80;;;22.80;99.90;;;;;;4854285;29;20848;-66
2022/06/28 08:24:17;;;;;;;3.15;1.60;;;22.70;99.90;;;;;;4828572;29;20069;-67
2022/06/28 08:26:45;;;;;;;2.95;1.60;;;22.40;99.90;;;;;;4873265;29;20061;-67
2022/06/28 08:29:14;;;;;;;3.10;1.90;;;22.30;99.90;;;;;;4842580;29;20076;-66
2022/06/28 08:31:43;;;;;;;3.83;1.80;;;22.50;99.90;;;;;;4870403;29;20129;-68
2022/06/28 08:34:10;;;;;;;5.05;2.00;;;22.40;99.90;;;;;;4841094;29;20046;-67
2022/06/28 08:36:38;;;;;;;6.88;2.10;;;22.30;99.90;;;;;;4854319;29;20083;-67
2022/06/28 08:39:08;;;;;;;3.13;1.92;;;22.60;99.90;;;;;;4854021;29;20517;-69
2022/06/28 08:41:36;;;;;;;3.60;1.70;;;22.60;99.90;;;;;;4841736;29;20111;-67
2022/06/28 08:44:04;;;;;;;4.28;1.63;;;22.70;99.90;;;;;;4842904;29;20061;-66
2022/06/28 08:46:34;;;;;;;6.15;2.03;;;22.40;99.90;;;;;;4857449;29;20053;-66
2022/06/28 08:49:19;;;;;;;5.65;1.60;;;22.50;99.90;;;;;;4858336;29;20049;-66
2022/06/28 08:51:47;;;;;;;3.28;1.65;;;22.90;99.90;;;;;;4855288;29;20572;-65
2022/06/28 08:54:17;;;;;;;10.63;7.35;;;23.10;99.90;;;;;;4857618;29;20520;-68
2022/06/28 08:56:46;;;;;;;3.05;1.90;;;23.30;99.90;;;;;;4858602;29;20390;-68
2022/06/28 08:59:14;;;;;;;2.63;1.70;;;23.30;99.90;;;;;;4859325;29;20071;-68
2022/06/28 09:01:42;;;;;;;4.20;2.05;;;23.30;99.90;;;;;;4859749;29;20050;-66
2022/06/28 09:04:10;;;;;;;3.90;1.98;;;23.00;99.90;;;;;;4855652;29;20049;-67
2022/06/28 09:06:38;;;;;;;4.72;1.80;;;22.90;99.90;;;;;;4859557;29;20075;-69
2022/06/28 09:09:05;;;;;;;4.13;1.80;;;22.90;99.90;;;;;;4873308;29;20056;-66
2022/06/28 09:11:43;;;;;;;2.72;1.60;;;23.00;99.90;;;;;;4859522;29;20049;-70
2022/06/28 09:14:29;;;;;;;5.70;1.92;;;23.00;99.90;;;;;;4858974;29;20045;-67
2022/06/28 09:17:18;;;;;;;4.13;1.80;;;22.90;99.90;;;;;;4857971;29;20527;-67
2022/06/28 09:19:45;;;;;;;5.15;1.70;;;23.30;99.90;;;;;;4858585;29;20390;-66
2022/06/28 09:22:31;;;;;;;3.17;1.38;;;23.50;99.90;;;;;;4858286;29;20045;-68
2022/06/28 09:25:05;;;;;;;3.72;1.83;;;23.60;99.90;;;;;;4858022;29;20424;-65
2022/06/28 09:27:35;;;;;;;3.30;1.70;;;23.60;99.90;;;;;;4846175;29;20038;-70
2022/06/28 09:30:11;;;;;;;3.17;1.98;;;23.90;99.90;;;;;;4851891;29;20081;-67
2022/06/28 09:32:41;;;;;;;5.35;1.90;;;24.10;99.90;;;;;;4849636;29;20137;-67
2022/06/28 09:35:13;;;;;;;4.18;1.98;;;24.30;99.90;;;;;;4857320;29;20049;-67
2022/06/28 09:37:51;;;;;;;5.22;1.70;;;24.40;99.90;;;;;;4858763;29;20053;-67
2022/06/28 09:40:20;;;;;;;3.33;1.65;;;24.40;99.90;;;;;;4848119;29;20152;-66
2022/06/28 09:43:08;;;;;;;;;;;24.90;99.90;;;;;;4858100;29;20067;-66
2022/06/28 09:45:37;;;;;;;5.22;1.73;;;25.20;99.90;;;;;;4852680;29;19932;-67
2022/06/28 09:48:06;;;;;;;3.30;2.10;;;25.50;99.90;;;;;;4853019;29;20493;-67
2022/06/28 09:50:36;;;;;;;3.65;1.88;;;25.90;99.90;;;;;;4854031;29;20045;-68
2022/06/28 09:53:05;;;;;;;1.80;1.30;;;26.10;99.90;;;;;;4851054;29;20049;-67
2022/06/28 09:55:37;;;;;;;2.35;1.50;;;26.20;99.90;;;;;;4854616;29;20069;-67
2022/06/28 09:58:08;;;;;;;2.35;1.40;;;26.40;99.90;;;;;;4840945;29;20165;-67
2022/06/28 10:00:39;;;;;;;3.38;1.50;;;26.70;99.90;;;;;;4847928;29;20132;-69
2022/06/28 10:03:09;;;;;;;3.08;1.48;;;27.00;99.90;;;;;;4854754;29;20141;-67
2022/06/28 10:05:40;;;;;;;2.95;1.40;;;27.20;99.90;;;;;;4846979;29;20050;-68
2022/06/28 10:08:07;;;;;;;4.47;1.70;;;27.40;99.90;;;;;;4857518;29;20058;-65
2022/06/28 10:10:40;;;;;;;1.88;1.40;;;27.50;99.90;;;;;;4856837;29;20086;-68
2022/06/28 10:16:26;;;;;;;3.28;1.60;;;27.70;99.90;;;;;;4850527;29;20176;-68
2022/06/28 10:18:55;;;;;;;5.00;1.83;;;28.00;99.90;;;;;;4848928;29;20564;-67
2022/06/28 10:21:46;;;;;;;4.60;1.52;;;28.20;99.90;;;;;;4855190;29;20045;-67
2022/06/28 10:24:14;;;;;;;4.28;1.60;;;28.30;99.90;;;;;;4855149;29;20069;-67
2022/06/28 10:27:05;;;;;;;5.10;2.10;;;28.30;99.90;;;;;;4858299;29;20703;-66
2022/06/28 10:29:54;;;;;;;2.92;1.35;;;28.20;99.90;;;;;;4851712;29;20061;-66
2022/06/28 10:32:45;;;;;;;2.72;1.38;;;28.20;99.90;;;;;;4852465;29;20049;-66
2022/06/28 10:35:31;;;;;;;2.75;1.27;;;28.40;99.90;;;;;;4851647;29;20335;-65
2022/06/28 10:38:08;;;;;;;3.65;1.00;;;28.60;99.90;;;;;;4857478;29;20072;-66
2022/06/28 10:40:41;;;;;;;3.35;1.15;;;28.60;99.90;;;;;;4851663;29;20067;-67
2022/06/28 10:43:35;;;;;;;4.57;1.17;;;28.80;99.90;;;;;;4848579;29;20057;-64
2022/06/28 10:46:07;;;;;;;4.25;1.33;;;29.00;99.90;;;;;;4845914;29;20718;-66
2022/06/28 10:48:49;;;;;;;3.22;1.30;;;29.30;99.90;;;;;;4839220;29;20038;-65
2022/06/28 10:51:20;;;;;;;3.95;1.92;;;29.00;99.90;;;;;;4846482;29;20053;-64
2022/06/28 10:53:57;;;;;;;3.47;1.20;;;28.90;99.90;;;;;;4856528;29;20046;-66
2022/06/28 10:56:25;;;;;;;2.97;1.10;;;28.90;99.90;;;;;;4854344;29;20053;-67
2022/06/28 10:59:00;;;;;;;3.80;1.40;;;28.90;99.90;;;;;;4848665;29;20054;-66
2022/06/28 11:01:39;;;;;;;1.98;1.10;;;29.10;99.90;;;;;;4831498;29;20165;-65
2022/06/28 11:04:24;;;;;;;2.67;1.40;;;29.30;99.90;;;;;;4850902;29;20465;-66
2022/06/28 11:06:55;;;;;;;2.10;1.20;;;29.70;99.90;;;;;;4855442;29;20045;-66
2022/06/28 11:09:53;;;;;;;3.75;1.92;;;30.00;99.90;;;;;;4855344;29;20489;-66
2022/06/28 11:12:35;;;;;;;3.97;1.42;;;29.50;99.30;;;;;;4854288;29;20049;-65
2022/06/28 11:15:11;;;;;;;2.40;1.30;;;29.80;99.70;;;;;;4851592;29;20839;-66
2022/06/28 11:17:43;;;;;;;2.05;1.20;;;29.70;99.00;;;;;;4841058;29;20045;-67
2022/06/28 11:20:19;;;;;;;2.60;1.15;;;29.40;99.10;;;;;;4848515;29;20057;-67
2022/06/28 11:22:54;;;;;;;3.15;1.40;;;29.80;99.10;;;;;;4849394;29;20068;-66
2022/06/28 11:25:24;;;;;;;2.47;1.20;;;30.30;98.90;;;;;;4849259;29;20050;-69
2022/06/28 11:27:57;;;;;;;2.63;1.60;;;30.60;98.50;;;;;;4841188;29;20137;-66
2022/06/28 11:30:28;;;;;;;2.13;1.30;;;30.90;96.90;;;;;;4847073;29;20076;-66
2022/06/28 11:32:57;;;;;;;3.03;1.50;;;30.80;97.10;;;;;;4855910;29;20056;-68
2022/06/28 11:35:30;;;;;;;3.25;1.45;;;30.50;97.40;;;;;;4847998;29;20077;-67
2022/06/28 11:37:59;;;;;;;3.85;1.70;;;30.30;97.90;;;;;;4842237;29;20064;-67
2022/06/28 11:40:38;;;;;;;2.63;1.42;;;30.30;97.90;;;;;;4845496;29;20190;-66
2022/06/28 11:43:08;;;;;;;2.40;1.33;;;29.70;97.30;;;;;;4850626;29;20042;-65
2022/06/28 11:45:45;;;;;;;3.85;1.50;;;29.60;97.80;;;;;;4850421;29;20618;-66
2022/06/28 11:48:14;;;;;;;4.50;1.70;;;29.70;97.50;;;;;;4845788;29;20050;-67
2022/06/28 11:50:46;;;;;;;3.00;1.70;;;29.80;97.60;;;;;;4845876;29;20136;-66
2022/06/28 11:53:15;;;;;;;4.90;1.38;;;30.00;97.00;;;;;;4855942;29;20052;-66
2022/06/28 11:55:45;;;;;;;4.22;1.40;;;30.30;96.70;;;;;;4847896;29;20045;-67
2022/06/28 11:58:13;;;;;;;3.22;1.40;;;30.80;96.70;;;;;;4842288;29;20045;-68
2022/06/28 12:01:07;;;;;;;3.97;1.55;;;31.30;96.60;;;;;;4856203;29;20056;-69
2022/06/28 12:03:41;;;;;;;3.00;1.58;;;31.70;95.60;;;;;;4849348;29;20069;-69
2022/06/28 12:06:20;;;;;;;5.30;1.75;;;32.30;95.30;;;;;;4853587;29;20072;-69
2022/06/28 12:08:52;;;;;;;3.60;1.70;;;32.40;94.10;;;;;;4855771;29;20138;-69
2022/06/28 12:11:29;;;;;;;3.17;1.60;;;32.10;94.30;;;;;;4854342;29;20081;-69
2022/06/28 12:13:57;;;;;;;2.42;1.55;;;32.20;93.90;;;;;;4849292;29;20060;-68
2022/06/28 12:16:29;;;;;;;;;;;32.80;94.40;;;;;;4849332;29;20058;-68
2022/06/28 12:19:00;;;;;;;2.30;1.48;;;33.70;92.80;;;;;;4849139;29;19928;-69
2022/06/28 12:21:29;;;;;;;3.63;1.65;;;33.70;91.70;;;;;;4836252;29;20057;-69
2022/06/28 12:23:58;;;;;;;2.53;1.20;;;34.20;91.50;;;;;;4854527;29;20050;-67
2022/06/28 12:26:44;;;;;;;6.13;3.58;;;34.70;90.40;;;;;;4855399;29;20060;-68
2022/06/28 12:29:13;;;;;;;3.15;1.55;;;34.90;88.10;;;;;;4866995;29;20510;-69
2022/06/28 12:31:44;;;;;;;2.30;1.23;;;35.40;85.40;;;;;;4857703;29;20065;-68
2022/06/28 12:34:17;;;;;;;3.42;1.30;;;35.00;84.50;;;;;;4856624;29;20064;-68
2022/06/28 12:36:45;;;;;;;3.00;1.40;;;34.80;84.60;;;;;;4847353;29;20046;-70
2022/06/28 12:39:12;;;;;;;3.42;1.35;;;35.10;84.20;;;;;;4845770;29;20071;-68
2022/06/28 12:41:39;;;;;;;1.83;1.30;;;34.80;82.80;;;;;;4844872;29;20092;-68
2022/06/28 12:44:09;;;;;;;2.33;1.40;;;34.50;82.60;;;;;;4854029;29;20116;-69
2022/06/28 12:46:43;;;;;;;2.65;1.50;;;33.80;84.90;;;;;;4860839;29;20053;-69
2022/06/28 12:49:11;;;;;;;2.17;1.45;;;33.80;84.60;;;;;;4848756;29;20508;-69
2022/06/28 12:51:39;;;;;;;2.90;1.42;;;33.30;82.90;;;;;;4846225;29;20075;-69
2022/06/28 12:54:06;;;;;;;3.95;1.60;;;33.00;84.00;;;;;;4858239;29;20138;-69
2022/06/28 12:56:33;;;;;;;3.17;1.33;;;32.80;85.40;;;;;;4862280;29;20461;-69
2022/06/28 12:59:03;;;;;;;2.03;1.30;;;33.20;83.80;;;;;;4851379;29;20073;-69
2022/06/28 13:01:31;;;;;;;2.40;1.35;;;33.60;82.70;;;;;;4851491;29;20053;-67
2022/06/28 13:04:01;;;;;;;3.30;1.70;;;33.90;82.50;;;;;;4853910;29;20057;-67
2022/06/28 13:06:29;;;;;;;2.65;1.55;;;34.40;81.50;;;;;;4846404;29;20046;-70
2022/06/28 13:08:57;;;;;;;2.78;1.60;;;34.20;81.30;;;;;;4854466;29;20057;-68
2022/06/28 13:11:26;;;;;;;5.30;1.60;;;33.80;81.90;;;;;;4845995;29;20049;-70
2022/06/28 13:13:54;;;;;;;1.88;1.27;;;34.50;80.90;;;;;;4826467;29;20068;-69
2022/06/28 13:16:26;;;;;;;4.47;1.30;;;35.20;79.30;;;;;;4870736;29;20057;-67
2022/06/28 13:18:56;;;;;;;1.67;1.08;;;35.90;78.00;;;;;;4852527;29;20129;-68
2022/06/28 13:21:24;;;;;;;2.72;1.40;;;35.70;78.20;;;;;;4850808;29;20046;-68